sensor_id;sensor_type;location;lat;lon;timestamp;temperature;humidity
14893;DHT22;7538;53.626;9.906;2023-06-24T00:01:04;17.10;99.90
14893;DHT22;7538;53.626;9.906;2023-06-24T00:03:31;17.10;99.90
14893;DHT22;7538;53.626;9.906;2023-06-24T00:06:02;17.00;99.90
14893;DHT22;7538;53.626;9.906;2023-06-24T00:08:30;17.00;99.90
14893;DHT22;7538;53.626;9.906;2023-06-24T00:11:00;17.00;99.90
14893;DHT22;7538;53.626;9.906;2023-06-24T00:13:28;17.00;99.90
14893;DHT22;7538;53.626;9.906;2023-06-24T00:15:55;16.90;99.90
14893;DHT22;7538;53.626;9.906;2023-06-24T00:18:22;16.90;99.90
14893;DHT22;7538;53.626;9.906;2023-06-24T00:20:55;16.90;99.90
14893;DHT22;7538;53.626;9.906;2023-06-24T00:23:23;16.80;99.90
14893;DHT22;7538;53.626;9.906;2023-06-24T00:25:52;16.80;99.90
14893;DHT22;7538;53.626;9.906;2023-06-24T00:28:20;16.80;99.90
14893;DHT22;7538;53.626;9.906;2023-06-24T00:30:47;16.80;99.90
14893;DHT22;7538;53.626;9.906;2023-06-24T00:33:15;16.80;99.90
14893;DHT22;7538;53.626;9.906;2023-06-24T00:35:44;16.70;99.90
14893;DHT22;7538;53.626;9.906;2023-06-24T00:38:12;16.70;99.90
14893;DHT22;7538;53.626;9.906;2023-06-24T00:40:39;16.60;99.90
14893;DHT22;7538;53.626;9.906;2023-06-24T00:43:07;16.60;99.90
14893;DHT22;7538;53.626;9.906;2023-06-24T00:45:34;16.50;99.90
14893;DHT22;7538;53.626;9.906;2023-06-24T00:48:01;16.50;99.90
14893;DHT22;7538;53.626;9.906;2023-06-24T00:50:29;16.50;99.90
14893;DHT22;7538;53.626;9.906;2023-06-24T00:52:56;16.40;99.90
14893;DHT22;7538;53.626;9.906;2023-06-24T00:55:22;16.40;99.90
14893;DHT22;7538;53.626;9.906;2023-06-24T00:57:51;16.40;99.90
14893;DHT22;7538;53.626;9.906;2023-06-24T01:00:21;15.90;99.90
14893;DHT22;7538;53.626;9.906;2023-06-24T01:02:49;16.30;99.90
14893;DHT22;7538;53.626;9.906;2023-06-24T01:05:16;16.30;99.90
14893;DHT22;7538;53.626;9.906;2023-06-24T01:07:43;16.30;99.90
14893;DHT22;7538;53.626;9.906;2023-06-24T01:10:10;16.20;99.90
14893;DHT22;7538;53.626;9.906;2023-06-24T01:12:40;16.20;99.90
14893;DHT22;7538;53.626;9.906;2023-06-24T01:15:10;16.20;99.90
14893;DHT22;7538;53.626;9.906;2023-06-24T01:17:44;16.10;99.90
14893;DHT22;7538;53.626;9.906;2023-06-24T01:20:17;16.10;99.90
14893;DHT22;7538;53.626;9.906;2023-06-24T01:23:01;16.60;99.90
14893;DHT22;7538;53.626;9.906;2023-06-24T01:25:43;16.00;99.90
14893;DHT22;7538;53.626;9.906;2023-06-24T01:28:23;16.00;99.90
14893;DHT22;7538;53.626;9.906;2023-06-24T01:33:54;13.90;99.90
14893;DHT22;7538;53.626;9.906;2023-06-24T01:36:25;15.90;99.90
14893;DHT22;7538;53.626;9.906;2023-06-24T01:38:58;15.80;99.90
14893;DHT22;7538;53.626;9.906;2023-06-24T01:41:31;15.80;99.90
14893;DHT22;7538;53.626;9.906;2023-06-24T01:43:59;15.80;99.90
14893;DHT22;7538;53.626;9.906;2023-06-24T01:46:29;15.80;99.90
14893;DHT22;7538;53.626;9.906;2023-06-24T01:49:01;15.80;99.90
14893;DHT22;7538;53.626;9.906;2023-06-24T01:51:30;15.80;99.90
14893;DHT22;7538;53.626;9.906;2023-06-24T01:54:00;15.70;99.90
14893;DHT22;7538;53.626;9.906;2023-06-24T01:56:28;15.70;99.90
14893;DHT22;7538;53.626;9.906;2023-06-24T01:58:58;15.60;99.90
14893;DHT22;7538;53.626;9.906;2023-06-24T02:01:27;15.60;99.90
14893;DHT22;7538;53.626;9.906;2023-06-24T02:03:57;15.60;99.90
14893;DHT22;7538;53.626;9.906;2023-06-24T02:06:24;14.20;99.90
14893;DHT22;7538;53.626;9.906;2023-06-24T02:08:53;15.50;99.90
14893;DHT22;7538;53.626;9.906;2023-06-24T02:11:21;18.10;99.90
14893;DHT22;7538;53.626;9.906;2023-06-24T02:13:51;15.50;99.90
14893;DHT22;7538;53.626;9.906;2023-06-24T02:16:20;15.40;99.90
14893;DHT22;7538;53.626;9.906;2023-06-24T02:18:48;15.40;99.90
14893;DHT22;7538;53.626;9.906;2023-06-24T02:21:17;15.40;99.90
14893;DHT22;7538;53.626;9.906;2023-06-24T02:23:46;15.40;99.90
14893;DHT22;7538;53.626;9.906;2023-06-24T02:26:15;15.40;99.90
14893;DHT22;7538;53.626;9.906;2023-06-24T02:28:44;15.30;99.90
14893;DHT22;7538;53.626;9.906;2023-06-24T02:31:12;15.30;99.90
14893;DHT22;7538;53.626;9.906;2023-06-24T02:33:39;15.30;99.90
14893;DHT22;7538;53.626;9.906;2023-06-24T02:36:06;15.30;99.90
14893;DHT22;7538;53.626;9.906;2023-06-24T02:38:35;15.20;99.90
14893;DHT22;7538;53.626;9.906;2023-06-24T02:41:02;15.20;99.90
14893;DHT22;7538;53.626;9.906;2023-06-24T02:43:30;15.20;99.90
14893;DHT22;7538;53.626;9.906;2023-06-24T02:45:58;15.20;99.90
14893;DHT22;7538;53.626;9.906;2023-06-24T02:48:26;15.10;99.90
14893;DHT22;7538;53.626;9.906;2023-06-24T02:50:55;15.10;99.90
14893;DHT22;7538;53.626;9.906;2023-06-24T02:53:22;15.10;99.90
14893;DHT22;7538;53.626;9.906;2023-06-24T02:55:50;15.10;99.90
14893;DHT22;7538;53.626;9.906;2023-06-24T02:58:17;15.10;99.90
14893;DHT22;7538;53.626;9.906;2023-06-24T03:00:44;15.00;99.90
14893;DHT22;7538;53.626;9.906;2023-06-24T03:03:11;15.00;99.90
14893;DHT22;7538;53.626;9.906;2023-06-24T03:05:39;15.00;99.90
14893;DHT22;7538;53.626;9.906;2023-06-24T03:08:06;15.00;99.90
14893;DHT22;7538;53.626;9.906;2023-06-24T03:10:36;15.10;99.90
14893;DHT22;7538;53.626;9.906;2023-06-24T03:13:04;15.00;99.90
14893;DHT22;7538;53.626;9.906;2023-06-24T03:15:31;15.00;99.90
14893;DHT22;7538;53.626;9.906;2023-06-24T03:17:58;15.00;99.90
14893;DHT22;7538;53.626;9.906;2023-06-24T03:20:25;15.00;99.90
14893;DHT22;7538;53.626;9.906;2023-06-24T03:22:52;15.10;99.90
14893;DHT22;7538;53.626;9.906;2023-06-24T03:25:20;15.10;99.90
14893;DHT22;7538;53.626;9.906;2023-06-24T03:27:46;15.10;99.90
14893;DHT22;7538;53.626;9.906;2023-06-24T03:30:15;15.10;99.90
14893;DHT22;7538;53.626;9.906;2023-06-24T03:32:41;15.10;99.90
14893;DHT22;7538;53.626;9.906;2023-06-24T03:35:12;15.20;99.90
14893;DHT22;7538;53.626;9.906;2023-06-24T03:37:39;15.20;99.90
14893;DHT22;7538;53.626;9.906;2023-06-24T03:40:07;15.30;99.90
14893;DHT22;7538;53.626;9.906;2023-06-24T03:42:34;15.30;99.90
14893;DHT22;7538;53.626;9.906;2023-06-24T03:45:02;15.40;99.90
14893;DHT22;7538;53.626;9.906;2023-06-24T03:47:30;15.40;99.90
14893;DHT22;7538;53.626;9.906;2023-06-24T03:49:57;15.40;99.90
14893;DHT22;7538;53.626;9.906;2023-06-24T03:52:24;15.50;99.90
14893;DHT22;7538;53.626;9.906;2023-06-24T03:54:51;15.50;99.90
14893;DHT22;7538;53.626;9.906;2023-06-24T03:57:19;15.50;99.90
14893;DHT22;7538;53.626;9.906;2023-06-24T03:59:46;15.70;99.90
14893;DHT22;7538;53.626;9.906;2023-06-24T04:02:13;15.70;99.90
14893;DHT22;7538;53.626;9.906;2023-06-24T04:04:41;15.80;99.90
14893;DHT22;7538;53.626;9.906;2023-06-24T04:07:08;15.80;99.90
14893;DHT22;7538;53.626;9.906;2023-06-24T04:09:35;15.90;99.90
14893;DHT22;7538;53.626;9.906;2023-06-24T04:12:02;16.10;99.90
14893;DHT22;7538;53.626;9.906;2023-06-24T04:14:29;16.20;99.90
14893;DHT22;7538;53.626;9.906;2023-06-24T04:16:56;16.20;99.90
14893;DHT22;7538;53.626;9.906;2023-06-24T04:19:22;16.40;99.90
14893;DHT22;7538;53.626;9.906;2023-06-24T04:21:51;16.50;99.90
14893;DHT22;7538;53.626;9.906;2023-06-24T04:24:17;16.60;99.90
14893;DHT22;7538;53.626;9.906;2023-06-24T04:26:44;16.60;99.90
14893;DHT22;7538;53.626;9.906;2023-06-24T04:29:11;16.70;99.90
14893;DHT22;7538;53.626;9.906;2023-06-24T04:31:38;16.80;99.90
14893;DHT22;7538;53.626;9.906;2023-06-24T04:34:05;16.90;99.90
14893;DHT22;7538;53.626;9.906;2023-06-24T04:36:32;17.00;99.90
14893;DHT22;7538;53.626;9.906;2023-06-24T04:39:00;17.10;99.90
14893;DHT22;7538;53.626;9.906;2023-06-24T04:41:27;17.20;99.90
14893;DHT22;7538;53.626;9.906;2023-06-24T04:43:53;17.20;99.90
14893;DHT22;7538;53.626;9.906;2023-06-24T04:46:20;17.30;99.90
14893;DHT22;7538;53.626;9.906;2023-06-24T04:48:47;17.40;99.90
14893;DHT22;7538;53.626;9.906;2023-06-24T04:51:14;17.50;99.90
14893;DHT22;7538;53.626;9.906;2023-06-24T04:53:41;17.60;99.90
14893;DHT22;7538;53.626;9.906;2023-06-24T04:56:09;17.60;99.90
14893;DHT22;7538;53.626;9.906;2023-06-24T04:58:36;17.80;99.90
14893;DHT22;7538;53.626;9.906;2023-06-24T05:01:03;18.00;99.90
14893;DHT22;7538;53.626;9.906;2023-06-24T05:03:30;18.30;99.90
14893;DHT22;7538;53.626;9.906;2023-06-24T05:05:57;18.90;99.90
14893;DHT22;7538;53.626;9.906;2023-06-24T05:08:24;19.80;99.90
14893;DHT22;7538;53.626;9.906;2023-06-24T05:10:51;20.90;99.90
14893;DHT22;7538;53.626;9.906;2023-06-24T05:13:19;21.80;99.90
14893;DHT22;7538;53.626;9.906;2023-06-24T05:15:46;22.20;99.90
14893;DHT22;7538;53.626;9.906;2023-06-24T05:18:13;22.50;99.90
14893;DHT22;7538;53.626;9.906;2023-06-24T05:20:39;22.50;99.90
14893;DHT22;7538;53.626;9.906;2023-06-24T05:23:06;20.50;99.90
14893;DHT22;7538;53.626;9.906;2023-06-24T05:25:33;22.30;99.90
14893;DHT22;7538;53.626;9.906;2023-06-24T05:28:00;22.10;99.90
14893;DHT22;7538;53.626;9.906;2023-06-24T05:30:29;22.10;99.90
14893;DHT22;7538;53.626;9.906;2023-06-24T05:32:55;22.30;99.90
14893;DHT22;7538;53.626;9.906;2023-06-24T05:35:22;23.10;99.90
14893;DHT22;7538;53.626;9.906;2023-06-24T05:37:49;24.50;99.90
14893;DHT22;7538;53.626;9.906;2023-06-24T05:40:16;25.90;99.90
14893;DHT22;7538;53.626;9.906;2023-06-24T05:42:43;27.30;98.60
14893;DHT22;7538;53.626;9.906;2023-06-24T05:45:10;28.30;95.60
14893;DHT22;7538;53.626;9.906;2023-06-24T05:47:38;29.40;91.80
14893;DHT22;7538;53.626;9.906;2023-06-24T05:50:06;30.10;85.20
14893;DHT22;7538;53.626;9.906;2023-06-24T05:52:32;30.70;79.50
14893;DHT22;7538;53.626;9.906;2023-06-24T05:54:59;31.60;70.30
14893;DHT22;7538;53.626;9.906;2023-06-24T05:57:26;32.40;66.30
14893;DHT22;7538;53.626;9.906;2023-06-24T05:59:53;33.00;61.60
14893;DHT22;7538;53.626;9.906;2023-06-24T06:02:20;33.90;57.50
14893;DHT22;7538;53.626;9.906;2023-06-24T06:04:48;34.60;54.60
14893;DHT22;7538;53.626;9.906;2023-06-24T06:07:15;35.10;53.40
14893;DHT22;7538;53.626;9.906;2023-06-24T06:09:42;35.40;50.70
14893;DHT22;7538;53.626;9.906;2023-06-24T06:12:09;35.60;50.50
14893;DHT22;7538;53.626;9.906;2023-06-24T06:14:36;35.60;49.40
14893;DHT22;7538;53.626;9.906;2023-06-24T06:17:03;35.90;48.50
14893;DHT22;7538;53.626;9.906;2023-06-24T06:19:30;35.60;47.40
14893;DHT22;7538;53.626;9.906;2023-06-24T06:21:59;35.20;47.00
14893;DHT22;7538;53.626;9.906;2023-06-24T06:24:26;34.60;47.90
14893;DHT22;7538;53.626;9.906;2023-06-24T06:26:53;33.90;49.00
14893;DHT22;7538;53.626;9.906;2023-06-24T06:29:19;33.70;49.70
14893;DHT22;7538;53.626;9.906;2023-06-24T06:31:46;33.90;50.30
14893;DHT22;7538;53.626;9.906;2023-06-24T06:34:13;34.10;50.00
14893;DHT22;7538;53.626;9.906;2023-06-24T06:36:40;33.80;49.70
14893;DHT22;7538;53.626;9.906;2023-06-24T06:39:08;33.40;50.90
14893;DHT22;7538;53.626;9.906;2023-06-24T06:41:35;33.60;51.50
14893;DHT22;7538;53.626;9.906;2023-06-24T06:44:02;34.50;49.50
14893;DHT22;7538;53.626;9.906;2023-06-24T06:46:29;34.30;48.60
14893;DHT22;7538;53.626;9.906;2023-06-24T06:48:56;33.90;48.90
14893;DHT22;7538;53.626;9.906;2023-06-24T06:51:22;33.30;49.70
14893;DHT22;7538;53.626;9.906;2023-06-24T06:53:50;32.70;51.60
14893;DHT22;7538;53.626;9.906;2023-06-24T06:56:19;32.80;52.20
14893;DHT22;7538;53.626;9.906;2023-06-24T06:58:45;32.90;51.30
14893;DHT22;7538;53.626;9.906;2023-06-24T07:01:12;33.40;50.80
14893;DHT22;7538;53.626;9.906;2023-06-24T07:03:39;34.10;49.30
14893;DHT22;7538;53.626;9.906;2023-06-24T07:06:06;35.00;48.80
14893;DHT22;7538;53.626;9.906;2023-06-24T07:08:33;35.80;46.20
14893;DHT22;7538;53.626;9.906;2023-06-24T07:11:00;36.30;45.70
14893;DHT22;7538;53.626;9.906;2023-06-24T07:13:29;35.70;43.60
14893;DHT22;7538;53.626;9.906;2023-06-24T07:15:55;35.10;43.80
14893;DHT22;7538;53.626;9.906;2023-06-24T07:18:23;35.60;43.80
14893;DHT22;7538;53.626;9.906;2023-06-24T07:20:50;35.80;42.00
14893;DHT22;7538;53.626;9.906;2023-06-24T07:23:16;36.20;41.90
14893;DHT22;7538;53.626;9.906;2023-06-24T07:25:43;36.80;41.50
14893;DHT22;7538;53.626;9.906;2023-06-24T07:28:10;37.00;41.40
14893;DHT22;7538;53.626;9.906;2023-06-24T07:30:39;37.80;41.90
14893;DHT22;7538;53.626;9.906;2023-06-24T07:33:07;38.70;41.00
14893;DHT22;7538;53.626;9.906;2023-06-24T07:35:34;39.20;40.10
14893;DHT22;7538;53.626;9.906;2023-06-24T07:38:01;39.60;39.20
14893;DHT22;7538;53.626;9.906;2023-06-24T07:40:28;39.60;37.80
14893;DHT22;7538;53.626;9.906;2023-06-24T07:42:55;39.70;36.20
14893;DHT22;7538;53.626;9.906;2023-06-24T07:45:22;40.10;36.40
14893;DHT22;7538;53.626;9.906;2023-06-24T07:47:50;40.60;36.20
14893;DHT22;7538;53.626;9.906;2023-06-24T07:50:17;40.60;35.70
14893;DHT22;7538;53.626;9.906;2023-06-24T07:52:44;40.70;35.50
14893;DHT22;7538;53.626;9.906;2023-06-24T07:55:11;40.60;35.60
14893;DHT22;7538;53.626;9.906;2023-06-24T07:57:38;40.30;35.20
14893;DHT22;7538;53.626;9.906;2023-06-24T08:00:08;40.20;35.60
14893;DHT22;7538;53.626;9.906;2023-06-24T08:02:36;40.00;35.70
14893;DHT22;7538;53.626;9.906;2023-06-24T08:05:05;40.10;35.70
14893;DHT22;7538;53.626;9.906;2023-06-24T08:07:32;39.10;34.30
14893;DHT22;7538;53.626;9.906;2023-06-24T08:09:59;38.30;35.30
14893;DHT22;7538;53.626;9.906;2023-06-24T08:12:26;37.80;36.40
14893;DHT22;7538;53.626;9.906;2023-06-24T08:14:53;37.60;37.30
14893;DHT22;7538;53.626;9.906;2023-06-24T08:17:19;37.90;38.20
14893;DHT22;7538;53.626;9.906;2023-06-24T08:19:46;38.40;37.40
14893;DHT22;7538;53.626;9.906;2023-06-24T08:22:15;39.00;36.30
14893;DHT22;7538;53.626;9.906;2023-06-24T08:24:41;39.20;35.20
14893;DHT22;7538;53.626;9.906;2023-06-24T08:27:08;39.20;34.60
14893;DHT22;7538;53.626;9.906;2023-06-24T08:29:35;39.60;34.80
14893;DHT22;7538;53.626;9.906;2023-06-24T08:32:04;39.50;34.20
14893;DHT22;7538;53.626;9.906;2023-06-24T08:34:32;39.80;33.90
14893;DHT22;7538;53.626;9.906;2023-06-24T08:36:59;40.60;34.90
14893;DHT22;7538;53.626;9.906;2023-06-24T08:39:27;40.80;34.50
14893;DHT22;7538;53.626;9.906;2023-06-24T08:41:54;40.30;34.10
14893;DHT22;7538;53.626;9.906;2023-06-24T08:44:21;39.90;35.20
14893;DHT22;7538;53.626;9.906;2023-06-24T08:46:48;40.20;35.70
14893;DHT22;7538;53.626;9.906;2023-06-24T08:49:21;40.60;34.50
14893;DHT22;7538;53.626;9.906;2023-06-24T08:51:58;40.70;32.30
14893;DHT22;7538;53.626;9.906;2023-06-24T08:54:28;40.40;32.80
14893;DHT22;7538;53.626;9.906;2023-06-24T08:56:55;40.10;33.80
14893;DHT22;7538;53.626;9.906;2023-06-24T08:59:22;40.20;34.00
14893;DHT22;7538;53.626;9.906;2023-06-24T09:01:50;40.40;33.60
14893;DHT22;7538;53.626;9.906;2023-06-24T09:04:17;40.30;33.50
14893;DHT22;7538;53.626;9.906;2023-06-24T09:06:43;40.30;33.40
14893;DHT22;7538;53.626;9.906;2023-06-24T09:09:17;40.30;33.50
14893;DHT22;7538;53.626;9.906;2023-06-24T09:11:52;40.00;32.90
14893;DHT22;7538;53.626;9.906;2023-06-24T09:14:19;39.30;33.20
14893;DHT22;7538;53.626;9.906;2023-06-24T09:16:51;38.90;33.90
14893;DHT22;7538;53.626;9.906;2023-06-24T09:19:20;38.80;34.10
14893;DHT22;7538;53.626;9.906;2023-06-24T09:21:47;38.30;34.10
14893;DHT22;7538;53.626;9.906;2023-06-24T09:24:14;37.90;34.90
14893;DHT22;7538;53.626;9.906;2023-06-24T09:26:43;38.00;35.30
14893;DHT22;7538;53.626;9.906;2023-06-24T09:29:13;38.40;35.70
14893;DHT22;7538;53.626;9.906;2023-06-24T09:31:47;38.80;35.60
14893;DHT22;7538;53.626;9.906;2023-06-24T09:34:14;39.00;33.90
14893;DHT22;7538;53.626;9.906;2023-06-24T09:36:51;39.00;34.60
14893;DHT22;7538;53.626;9.906;2023-06-24T09:39:19;38.80;34.50
14893;DHT22;7538;53.626;9.906;2023-06-24T09:41:49;38.00;34.50
14893;DHT22;7538;53.626;9.906;2023-06-24T09:44:17;38.10;35.00
14893;DHT22;7538;53.626;9.906;2023-06-24T09:46:45;38.20;35.50
14893;DHT22;7538;53.626;9.906;2023-06-24T09:49:12;38.10;35.80
14893;DHT22;7538;53.626;9.906;2023-06-24T09:51:46;38.30;35.70
14893;DHT22;7538;53.626;9.906;2023-06-24T09:54:15;38.40;35.90
14893;DHT22;7538;53.626;9.906;2023-06-24T09:56:43;38.00;35.30
14893;DHT22;7538;53.626;9.906;2023-06-24T09:59:13;37.60;35.90
14893;DHT22;7538;53.626;9.906;2023-06-24T10:01:43;37.80;36.70
14893;DHT22;7538;53.626;9.906;2023-06-24T10:04:13;38.30;36.50
14893;DHT22;7538;53.626;9.906;2023-06-24T10:06:41;36.10;34.60
14893;DHT22;7538;53.626;9.906;2023-06-24T10:09:09;37.70;36.30
14893;DHT22;7538;53.626;9.906;2023-06-24T10:11:39;37.90;36.80
14893;DHT22;7538;53.626;9.906;2023-06-24T10:14:06;38.20;36.50
14893;DHT22;7538;53.626;9.906;2023-06-24T10:16:33;38.40;36.20
14893;DHT22;7538;53.626;9.906;2023-06-24T10:19:02;38.30;35.90
14893;DHT22;7538;53.626;9.906;2023-06-24T10:21:44;37.90;36.20
14893;DHT22;7538;53.626;9.906;2023-06-24T10:24:12;37.80;37.00
14893;DHT22;7538;53.626;9.906;2023-06-24T10:26:40;37.90;37.10
14893;DHT22;7538;53.626;9.906;2023-06-24T10:29:13;37.60;36.90
14893;DHT22;7538;53.626;9.906;2023-06-24T10:31:53;37.40;37.00
14893;DHT22;7538;53.626;9.906;2023-06-24T10:34:28;37.30;37.70
14893;DHT22;7538;53.626;9.906;2023-06-24T10:36:55;38.30;38.40
14893;DHT22;7538;53.626;9.906;2023-06-24T10:39:45;37.20;38.00
14893;DHT22;7538;53.626;9.906;2023-06-24T10:42:32;37.40;37.50
14893;DHT22;7538;53.626;9.906;2023-06-24T10:45:01;37.20;37.50
14893;DHT22;7538;53.626;9.906;2023-06-24T10:47:29;36.60;37.90
14893;DHT22;7538;53.626;9.906;2023-06-24T10:49:57;37.40;39.70
14893;DHT22;7538;53.626;9.906;2023-06-24T10:52:24;36.10;38.50
14893;DHT22;7538;53.626;9.906;2023-06-24T10:54:52;35.70;39.20
14893;DHT22;7538;53.626;9.906;2023-06-24T10:57:24;35.30;39.20
14893;DHT22;7538;53.626;9.906;2023-06-24T10:59:52;34.70;39.70
14893;DHT22;7538;53.626;9.906;2023-06-24T11:02:20;34.70;40.80
14893;DHT22;7538;53.626;9.906;2023-06-24T11:04:48;34.60;40.60
14893;DHT22;7538;53.626;9.906;2023-06-24T11:07:19;34.50;41.10
14893;DHT22;7538;53.626;9.906;2023-06-24T11:09:50;34.20;41.70
14893;DHT22;7538;53.626;9.906;2023-06-24T11:12:17;34.20;42.70
14893;DHT22;7538;53.626;9.906;2023-06-24T11:14:45;34.00;42.00
14893;DHT22;7538;53.626;9.906;2023-06-24T11:17:11;32.00;41.00
14893;DHT22;7538;53.626;9.906;2023-06-24T11:19:38;33.20;42.30
14893;DHT22;7538;53.626;9.906;2023-06-24T11:22:07;32.60;43.80
14893;DHT22;7538;53.626;9.906;2023-06-24T11:24:35;32.50;45.60
14893;DHT22;7538;53.626;9.906;2023-06-24T11:27:05;32.60;46.30
14893;DHT22;7538;53.626;9.906;2023-06-24T11:29:33;32.60;46.70
14893;DHT22;7538;53.626;9.906;2023-06-24T11:32:01;32.50;47.00
14893;DHT22;7538;53.626;9.906;2023-06-24T11:34:28;32.20;46.50
14893;DHT22;7538;53.626;9.906;2023-06-24T11:36:55;31.60;48.00
14893;DHT22;7538;53.626;9.906;2023-06-24T11:39:23;31.10;48.80
14893;DHT22;7538;53.626;9.906;2023-06-24T11:41:52;30.90;50.10
14893;DHT22;7538;53.626;9.906;2023-06-24T11:44:20;30.80;51.90
14893;DHT22;7538;53.626;9.906;2023-06-24T11:46:47;30.80;52.50
14893;DHT22;7538;53.626;9.906;2023-06-24T11:49:14;30.60;51.70
14893;DHT22;7538;53.626;9.906;2023-06-24T11:51:48;30.40;53.30
14893;DHT22;7538;53.626;9.906;2023-06-24T11:54:17;30.20;53.80
14893;DHT22;7538;53.626;9.906;2023-06-24T11:56:51;30.00;54.70
14893;DHT22;7538;53.626;9.906;2023-06-24T11:59:19;29.70;56.70
14893;DHT22;7538;53.626;9.906;2023-06-24T12:01:52;29.80;56.50
14893;DHT22;7538;53.626;9.906;2023-06-24T12:04:20;29.90;55.90
14893;DHT22;7538;53.626;9.906;2023-06-24T12:06:47;30.00;56.30
14893;DHT22;7538;53.626;9.906;2023-06-24T12:09:15;30.10;57.50
14893;DHT22;7538;53.626;9.906;2023-06-24T12:11:42;30.10;56.70
14893;DHT22;7538;53.626;9.906;2023-06-24T12:14:11;30.20;57.00
14893;DHT22;7538;53.626;9.906;2023-06-24T12:16:38;30.10;58.00
14893;DHT22;7538;53.626;9.906;2023-06-24T12:19:06;29.90;58.00
14893;DHT22;7538;53.626;9.906;2023-06-24T12:21:33;29.90;57.20
14893;DHT22;7538;53.626;9.906;2023-06-24T12:24:00;29.90;57.60
14893;DHT22;7538;53.626;9.906;2023-06-24T12:26:26;29.80;58.20
14893;DHT22;7538;53.626;9.906;2023-06-24T12:28:54;29.90;59.60
14893;DHT22;7538;53.626;9.906;2023-06-24T12:31:23;29.90;59.30
14893;DHT22;7538;53.626;9.906;2023-06-24T12:33:50;30.00;58.10
14893;DHT22;7538;53.626;9.906;2023-06-24T12:36:18;30.10;56.90
14893;DHT22;7538;53.626;9.906;2023-06-24T12:38:44;30.00;58.30
14893;DHT22;7538;53.626;9.906;2023-06-24T12:41:11;29.70;57.40
14893;DHT22;7538;53.626;9.906;2023-06-24T12:43:38;29.50;59.60
14893;DHT22;7538;53.626;9.906;2023-06-24T12:46:05;29.50;60.00
14893;DHT22;7538;53.626;9.906;2023-06-24T12:48:33;29.50;60.10
14893;DHT22;7538;53.626;9.906;2023-06-24T12:51:00;29.70;59.40
14893;DHT22;7538;53.626;9.906;2023-06-24T12:53:27;29.70;60.00
14893;DHT22;7538;53.626;9.906;2023-06-24T12:55:54;29.40;59.90
14893;DHT22;7538;53.626;9.906;2023-06-24T12:58:23;29.40;60.40
14893;DHT22;7538;53.626;9.906;2023-06-24T13:00:50;29.40;60.90
14893;DHT22;7538;53.626;9.906;2023-06-24T13:03:17;29.40;63.00
14893;DHT22;7538;53.626;9.906;2023-06-24T13:05:45;29.50;62.40
14893;DHT22;7538;53.626;9.906;2023-06-24T13:08:12;29.40;62.00
14893;DHT22;7538;53.626;9.906;2023-06-24T13:10:39;29.50;62.90
14893;DHT22;7538;53.626;9.906;2023-06-24T13:13:06;29.60;62.60
14893;DHT22;7538;53.626;9.906;2023-06-24T13:15:33;29.70;62.80
14893;DHT22;7538;53.626;9.906;2023-06-24T13:18:01;29.60;62.60
14893;DHT22;7538;53.626;9.906;2023-06-24T13:20:28;29.60;63.00
14893;DHT22;7538;53.626;9.906;2023-06-24T13:22:56;30.60;64.00
14893;DHT22;7538;53.626;9.906;2023-06-24T13:25:23;29.00;64.20
14893;DHT22;7538;53.626;9.906;2023-06-24T13:27:50;28.90;66.70
14893;DHT22;7538;53.626;9.906;2023-06-24T13:30:17;29.00;65.70
14893;DHT22;7538;53.626;9.906;2023-06-24T13:32:44;29.10;67.20
14893;DHT22;7538;53.626;9.906;2023-06-24T13:35:11;29.10;65.00
14893;DHT22;7538;53.626;9.906;2023-06-24T13:37:38;29.10;64.80
14893;DHT22;7538;53.626;9.906;2023-06-24T13:40:08;29.10;65.60
14893;DHT22;7538;53.626;9.906;2023-06-24T13:42:35;29.20;65.00
14893;DHT22;7538;53.626;9.906;2023-06-24T13:45:02;29.30;65.90
14893;DHT22;7538;53.626;9.906;2023-06-24T13:47:29;29.30;64.00
14893;DHT22;7538;53.626;9.906;2023-06-24T13:49:56;29.20;63.80
14893;DHT22;7538;53.626;9.906;2023-06-24T13:52:24;29.20;64.30
14893;DHT22;7538;53.626;9.906;2023-06-24T13:54:51;29.20;65.60
14893;DHT22;7538;53.626;9.906;2023-06-24T13:57:20;29.00;65.40
14893;DHT22;7538;53.626;9.906;2023-06-24T13:59:47;28.90;66.00
14893;DHT22;7538;53.626;9.906;2023-06-24T14:02:13;29.00;64.00
14893;DHT22;7538;53.626;9.906;2023-06-24T14:04:40;28.90;65.50
14893;DHT22;7538;53.626;9.906;2023-06-24T14:07:08;28.90;66.50
14893;DHT22;7538;53.626;9.906;2023-06-24T14:09:35;28.80;65.20
14893;DHT22;7538;53.626;9.906;2023-06-24T14:12:02;28.80;65.10
14893;DHT22;7538;53.626;9.906;2023-06-24T14:14:31;28.70;65.60
14893;DHT22;7538;53.626;9.906;2023-06-24T14:16:57;28.80;67.90
14893;DHT22;7538;53.626;9.906;2023-06-24T14:19:24;28.50;69.80
14893;DHT22;7538;53.626;9.906;2023-06-24T14:21:51;28.30;69.20
14893;DHT22;7538;53.626;9.906;2023-06-24T14:24:18;26.40;68.40
14893;DHT22;7538;53.626;9.906;2023-06-24T14:26:45;28.10;71.10
14893;DHT22;7538;53.626;9.906;2023-06-24T14:29:15;28.10;70.70
14893;DHT22;7538;53.626;9.906;2023-06-24T14:31:43;28.00;70.10
14893;DHT22;7538;53.626;9.906;2023-06-24T14:34:10;27.90;72.10
14893;DHT22;7538;53.626;9.906;2023-06-24T14:36:37;28.00;71.30
14893;DHT22;7538;53.626;9.906;2023-06-24T14:39:04;28.00;72.70
14893;DHT22;7538;53.626;9.906;2023-06-24T14:41:31;28.10;72.80
14893;DHT22;7538;53.626;9.906;2023-06-24T14:43:58;28.20;72.00
14893;DHT22;7538;53.626;9.906;2023-06-24T14:46:25;28.20;69.70
14893;DHT22;7538;53.626;9.906;2023-06-24T14:48:53;28.10;71.30
14893;DHT22;7538;53.626;9.906;2023-06-24T14:51:20;28.20;70.60
14893;DHT22;7538;53.626;9.906;2023-06-24T14:53:47;28.30;70.70
14893;DHT22;7538;53.626;9.906;2023-06-24T14:56:14;28.40;69.80
14893;DHT22;7538;53.626;9.906;2023-06-24T14:58:41;28.40;69.90
14893;DHT22;7538;53.626;9.906;2023-06-24T15:01:08;28.50;69.30
14893;DHT22;7538;53.626;9.906;2023-06-24T15:03:35;28.40;69.40
14893;DHT22;7538;53.626;9.906;2023-06-24T15:06:03;28.60;70.20
14893;DHT22;7538;53.626;9.906;2023-06-24T15:08:30;28.70;67.90
14893;DHT22;7538;53.626;9.906;2023-06-24T15:10:57;28.80;68.30
14893;DHT22;7538;53.626;9.906;2023-06-24T15:13:24;28.80;67.90
14893;DHT22;7538;53.626;9.906;2023-06-24T15:15:50;28.70;68.40
14893;DHT22;7538;53.626;9.906;2023-06-24T15:18:21;28.70;67.90
14893;DHT22;7538;53.626;9.906;2023-06-24T15:20:48;28.50;68.80
14893;DHT22;7538;53.626;9.906;2023-06-24T15:23:16;28.50;72.40
14893;DHT22;7538;53.626;9.906;2023-06-24T15:25:43;28.40;71.70
14893;DHT22;7538;53.626;9.906;2023-06-24T15:28:10;28.30;73.60
14893;DHT22;7538;53.626;9.906;2023-06-24T15:30:37;28.20;72.80
14893;DHT22;7538;53.626;9.906;2023-06-24T15:33:03;28.20;74.60
14893;DHT22;7538;53.626;9.906;2023-06-24T15:35:30;28.20;74.20
14893;DHT22;7538;53.626;9.906;2023-06-24T15:37:57;28.00;73.80
14893;DHT22;7538;53.626;9.906;2023-06-24T15:40:25;28.10;75.70
14893;DHT22;7538;53.626;9.906;2023-06-24T15:42:52;28.20;75.90
14893;DHT22;7538;53.626;9.906;2023-06-24T15:45:19;28.30;75.10
14893;DHT22;7538;53.626;9.906;2023-06-24T15:47:47;28.20;75.90
14893;DHT22;7538;53.626;9.906;2023-06-24T15:50:14;28.20;75.50
14893;DHT22;7538;53.626;9.906;2023-06-24T15:52:41;28.00;74.90